createdAt,value
2018-02-27T00:02:17.380Z,44.30
2018-02-27T00:04:46.745Z,44.87
2018-02-27T00:07:16.108Z,45.47
2018-02-27T00:09:45.507Z,45.20
2018-02-27T00:12:14.874Z,44.50
2018-02-27T00:14:44.240Z,49.50
2018-02-27T00:17:13.628Z,45.37
2018-02-27T00:19:43.005Z,48.03
2018-02-27T00:22:12.392Z,47.90
2018-02-27T00:24:41.781Z,45.43
2018-02-27T00:27:11.172Z,47.30
2018-02-27T00:29:40.540Z,50.00
2018-02-27T00:32:09.945Z,45.90
2018-02-27T00:34:39.332Z,47.57
2018-02-27T00:37:08.697Z,46.33
2018-02-27T00:39:38.080Z,45.10
2018-02-27T00:42:07.454Z,42.80
2018-02-27T00:44:37.004Z,39.10
2018-02-27T00:47:06.488Z,37.83
2018-02-27T00:49:35.925Z,38.10
2018-02-27T00:52:05.303Z,37.97
2018-02-27T00:54:34.677Z,39.40
2018-02-27T00:57:04.065Z,39.00
2018-02-27T00:59:33.420Z,37.93
2018-02-27T01:02:02.846Z,38.67
2018-02-27T01:04:32.208Z,38.90
2018-02-27T01:07:01.577Z,42.77
2018-02-27T01:09:30.982Z,35.10
2018-02-27T01:12:00.349Z,32.83
2018-02-27T01:14:29.748Z,33.50
2018-02-27T01:16:59.106Z,36.33
2018-02-27T01:19:28.493Z,35.17
2018-02-27T01:21:57.861Z,36.77
2018-02-27T01:24:27.255Z,37.20
2018-02-27T01:26:56.663Z,35.23
2018-02-27T01:29:26.019Z,36.40
2018-02-27T01:31:55.406Z,35.60
2018-02-27T01:34:24.785Z,37.27
2018-02-27T01:36:54.177Z,33.43
2018-02-27T01:39:23.540Z,36.50
2018-02-27T01:41:52.901Z,31.93
2018-02-27T01:44:22.290Z,27.33
2018-02-27T01:46:51.657Z,30.60
2018-02-27T01:49:21.081Z,35.43
2018-02-27T01:51:50.700Z,32.80
2018-02-27T01:54:20.072Z,33.00
2018-02-27T01:56:49.451Z,32.57
2018-02-27T01:59:18.836Z,30.00
2018-02-27T02:01:48.200Z,38.87
2018-02-27T02:04:17.573Z,32.17
2018-02-27T02:06:46.958Z,34.57
2018-02-27T02:09:16.330Z,31.00
2018-02-27T02:11:45.701Z,31.30
2018-02-27T02:14:15.107Z,35.97
2018-02-27T02:16:44.469Z,28.03
2018-02-27T02:19:13.489Z,29.80
2018-02-27T02:21:43.010Z,30.87
2018-02-27T02:24:12.361Z,32.30
2018-02-27T02:26:41.758Z,32.30
2018-02-27T02:29:11.121Z,27.50
2018-02-27T02:31:40.500Z,32.40
2018-02-27T02:34:09.890Z,35.30
2018-02-27T02:36:39.265Z,32.40
2018-02-27T02:39:08.648Z,30.10
2018-02-27T02:41:38.022Z,31.20
2018-02-27T02:44:07.428Z,30.87
2018-02-27T02:46:36.831Z,29.83
2018-02-27T02:49:06.196Z,29.90
2018-02-27T02:51:35.586Z,29.67
2018-02-27T02:54:04.965Z,32.10
2018-02-27T02:56:34.344Z,34.63
2018-02-27T02:59:03.774Z,32.00
2018-02-27T03:01:33.141Z,30.57
2018-02-27T03:04:02.530Z,32.40
2018-02-27T03:06:31.897Z,33.00
2018-02-27T03:09:01.268Z,31.90
2018-02-27T03:11:30.757Z,30.10
2018-02-27T03:14:00.197Z,31.07
2018-02-27T03:16:29.670Z,33.50
2018-02-27T03:18:59.115Z,32.47
2018-02-27T03:21:28.572Z,26.93
2018-02-27T03:23:57.702Z,33.70
2018-02-27T03:26:27.380Z,33.83
2018-02-27T03:28:56.846Z,29.33
2018-02-27T03:31:26.298Z,30.80
2018-02-27T03:33:55.737Z,31.07
2018-02-27T03:36:25.197Z,31.30
2018-02-27T03:38:54.655Z,29.20
2018-02-27T03:41:24.113Z,33.80
2018-02-27T03:43:53.594Z,34.70
2018-02-27T03:46:23.040Z,34.57
2018-02-27T03:48:52.618Z,37.80
2018-02-27T03:51:22.069Z,33.17
2018-02-27T03:53:51.537Z,33.50
2018-02-27T03:56:21.009Z,34.03
2018-02-27T03:58:50.469Z,33.67
2018-02-27T04:01:19.942Z,31.23
2018-02-27T04:03:49.407Z,30.80
2018-02-27T04:06:18.870Z,30.83
2018-02-27T04:08:48.351Z,33.47
2018-02-27T04:11:17.822Z,38.17
2018-02-27T04:13:47.286Z,33.50
2018-02-27T04:16:16.749Z,32.93
2018-02-27T04:18:46.214Z,33.00
2018-02-27T04:21:15.683Z,37.13
2018-02-27T04:23:45.238Z,33.47
2018-02-27T04:26:14.786Z,33.93
2018-02-27T04:28:44.247Z,31.80
2018-02-27T04:31:13.721Z,38.73
2018-02-27T04:33:43.185Z,32.73
2018-02-27T04:36:12.665Z,33.37
2018-02-27T04:38:42.125Z,32.73
2018-02-27T04:41:11.585Z,34.03
2018-02-27T04:43:41.029Z,34.13
2018-02-27T04:46:10.489Z,38.00
2018-02-27T04:48:39.989Z,32.87
2018-02-27T04:51:09.662Z,33.43
2018-02-27T04:53:39.144Z,39.13
2018-02-27T04:56:08.651Z,33.93
2018-02-27T04:58:38.117Z,39.20
2018-02-27T05:01:07.562Z,40.87
2018-02-27T05:03:37.041Z,38.37
2018-02-27T05:06:06.481Z,35.50
2018-02-27T05:08:35.939Z,36.80
2018-02-27T05:11:05.425Z,35.43
2018-02-27T05:13:34.875Z,33.60
2018-02-27T05:16:04.460Z,35.63
2018-02-27T05:18:34.046Z,34.67
2018-02-27T05:21:03.501Z,38.93
2018-02-27T05:23:32.963Z,38.97
2018-02-27T05:26:02.426Z,38.70
2018-02-27T05:28:31.889Z,44.80
2018-02-27T05:31:01.354Z,33.47
2018-02-27T05:33:30.823Z,37.17
2018-02-27T05:36:00.316Z,41.70
2018-02-27T05:38:29.777Z,34.57
2018-02-27T05:40:59.328Z,40.43
2018-02-27T05:43:28.794Z,40.90
2018-02-27T05:45:58.267Z,39.90
2018-02-27T05:48:27.733Z,36.33
2018-02-27T05:50:57.207Z,45.23
2018-02-27T05:53:26.677Z,36.07
2018-02-27T05:55:56.165Z,43.77
2018-02-27T05:58:25.629Z,39.57
2018-02-27T06:00:55.085Z,39.27
2018-02-27T06:03:24.573Z,40.50
2018-02-27T06:05:54.041Z,40.13
2018-02-27T06:08:23.496Z,37.97
2018-02-27T06:10:54.244Z,39.20
2018-02-27T06:13:23.713Z,39.07
2018-02-27T06:15:53.161Z,39.10
2018-02-27T06:18:22.613Z,36.37
2018-02-27T06:20:51.739Z,38.67
2018-02-27T06:23:21.239Z,36.73
2018-02-27T06:25:50.705Z,37.17
2018-02-27T06:28:20.159Z,37.70
2018-02-27T06:30:49.650Z,43.50
2018-02-27T06:33:19.146Z,37.87
2018-02-27T06:35:48.598Z,38.50
2018-02-27T06:38:18.066Z,39.53
2018-02-27T06:40:47.865Z,40.90
2018-02-27T06:43:17.538Z,36.57
2018-02-27T06:45:46.789Z,43.27
2018-02-27T06:48:16.254Z,40.87
2018-02-27T06:50:45.364Z,38.83
2018-02-27T06:53:14.821Z,41.37
2018-02-27T06:55:44.283Z,41.13
2018-02-27T06:58:13.734Z,39.43
2018-02-27T07:00:43.201Z,40.93
2018-02-27T07:03:12.665Z,36.83
2018-02-27T07:05:42.125Z,39.40
2018-02-27T07:08:11.566Z,40.43
2018-02-27T07:10:41.037Z,37.83
2018-02-27T07:13:10.474Z,46.20
2018-02-27T07:15:39.914Z,42.40
2018-02-27T07:18:09.384Z,44.20
2018-02-27T07:20:38.822Z,39.67
2018-02-27T07:23:08.309Z,35.83
2018-02-27T07:25:37.758Z,43.20
2018-02-27T07:28:07.035Z,39.97
2018-02-27T07:30:36.481Z,39.40
2018-02-27T07:33:06.042Z,35.73
2018-02-27T07:35:38.505Z,44.67
2018-02-27T07:38:07.965Z,35.43
2018-02-27T07:40:37.406Z,38.20
2018-02-27T07:43:06.850Z,32.77
2018-02-27T07:45:36.311Z,39.57
2018-02-27T07:48:05.749Z,35.80
2018-02-27T07:50:35.206Z,35.70
2018-02-27T07:53:04.653Z,36.37
2018-02-27T07:55:34.113Z,33.97
2018-02-27T07:58:03.560Z,36.07
2018-02-27T08:00:33.024Z,33.60
2018-02-27T08:03:02.475Z,38.50
2018-02-27T08:05:31.955Z,27.23
2018-02-27T08:08:01.409Z,39.17
2018-02-27T08:10:30.965Z,23.30
2018-02-27T08:13:00.425Z,30.97
2018-02-27T08:15:29.878Z,40.50
2018-02-27T08:17:59.337Z,30.90
2018-02-27T08:20:28.921Z,39.30
2018-02-27T08:22:58.677Z,37.20
2018-02-27T08:25:28.121Z,37.67
2018-02-27T08:27:57.581Z,28.03
2018-02-27T08:30:27.022Z,36.50
2018-02-27T08:32:56.470Z,34.63
2018-02-27T08:35:25.950Z,36.90
2018-02-27T08:37:55.429Z,37.83
2018-02-27T08:40:24.899Z,37.77
2018-02-27T08:42:54.379Z,40.37
2018-02-27T08:45:24.033Z,35.40
2018-02-27T08:47:53.473Z,35.47
2018-02-27T08:50:22.939Z,46.33
2018-02-27T08:52:52.389Z,36.43
2018-02-27T08:55:21.850Z,41.73
2018-02-27T08:57:50.964Z,37.27
2018-02-27T09:00:20.401Z,34.90
2018-02-27T09:02:49.906Z,40.63
2018-02-27T09:05:19.346Z,36.07
2018-02-27T09:07:48.809Z,33.90
2018-02-27T09:10:18.250Z,35.43
2018-02-27T09:12:47.709Z,38.03
2018-02-27T09:15:17.192Z,35.53
2018-02-27T09:17:46.653Z,38.83
2018-02-27T09:20:16.148Z,33.17
2018-02-27T09:22:45.582Z,33.87
2018-02-27T09:25:14.865Z,33.43
2018-02-27T09:27:44.309Z,34.50
2018-02-27T09:30:13.766Z,36.13
2018-02-27T09:32:43.217Z,31.37
2018-02-27T09:35:12.673Z,29.70
2018-02-27T09:37:42.120Z,34.23
2018-02-27T09:40:11.262Z,34.83
2018-02-27T09:42:40.718Z,36.27
2018-02-27T09:45:10.174Z,35.07
2018-02-27T09:47:39.308Z,30.83
2018-02-27T09:50:08.758Z,32.40
2018-02-27T09:52:38.222Z,32.73
2018-02-27T09:55:07.673Z,31.67
2018-02-27T09:57:37.225Z,35.87
2018-02-27T10:00:06.689Z,38.30
2018-02-27T10:02:36.165Z,36.63
2018-02-27T10:05:05.633Z,40.77
2018-02-27T10:07:35.085Z,36.53
2018-02-27T10:10:04.218Z,37.73
2018-02-27T10:12:33.668Z,39.70
2018-02-27T10:15:03.130Z,35.77
2018-02-27T10:17:32.667Z,36.53
2018-02-27T10:20:02.130Z,33.93
2018-02-27T10:22:31.590Z,38.47
2018-02-27T10:25:01.054Z,33.13
2018-02-27T10:27:30.545Z,36.20
2018-02-27T10:30:00.294Z,34.30
2018-02-27T10:32:29.770Z,38.10
2018-02-27T10:34:58.879Z,33.40
2018-02-27T10:37:28.346Z,35.33
2018-02-27T10:39:57.809Z,38.83
2018-02-27T10:42:27.276Z,32.83
2018-02-27T10:44:56.717Z,33.37
2018-02-27T10:47:26.222Z,36.20
2018-02-27T10:49:55.660Z,37.60
2018-02-27T10:52:25.123Z,35.47
2018-02-27T10:54:54.610Z,31.23
2018-02-27T10:57:24.286Z,31.93
2018-02-27T10:59:53.749Z,29.77
2018-02-27T11:02:23.040Z,33.20
2018-02-27T11:04:53.529Z,31.97
2018-02-27T11:07:22.988Z,33.70
2018-02-27T11:09:52.658Z,32.93
2018-02-27T11:12:22.122Z,31.37
2018-02-27T11:14:51.664Z,30.70
2018-02-27T11:17:21.113Z,34.23
2018-02-27T11:19:50.690Z,33.03
2018-02-27T11:22:20.201Z,30.43
2018-02-27T11:24:49.676Z,32.83
2018-02-27T11:27:19.222Z,30.73
2018-02-27T11:29:48.665Z,28.63
2018-02-27T11:32:18.128Z,28.67
2018-02-27T11:34:47.569Z,31.77
2018-02-27T11:37:17.031Z,30.20
2018-02-27T11:39:46.530Z,29.40
2018-02-27T11:42:15.990Z,31.90
2018-02-27T11:44:45.441Z,32.70
2018-02-27T11:47:15.090Z,30.00
2018-02-27T11:49:44.557Z,32.47
2018-02-27T11:52:14.001Z,27.23
2018-02-27T11:54:43.458Z,28.53
2018-02-27T11:57:12.924Z,29.60
2018-02-27T11:59:42.393Z,30.67
2018-02-27T12:02:11.847Z,31.37
2018-02-27T12:04:41.314Z,31.17
2018-02-27T12:07:10.801Z,31.33
2018-02-27T12:09:40.269Z,28.60
2018-02-27T12:12:09.713Z,31.77
2018-02-27T12:14:39.161Z,29.23
2018-02-27T12:17:08.621Z,34.83
2018-02-27T12:19:38.112Z,30.03
2018-02-27T12:22:07.763Z,29.67
2018-02-27T12:24:37.208Z,27.27
2018-02-27T12:27:06.661Z,29.07
2018-02-27T12:29:36.121Z,31.77
2018-02-27T12:32:05.581Z,30.13
2018-02-27T12:34:35.049Z,31.10
2018-02-27T12:37:04.550Z,29.70
2018-02-27T12:39:34.007Z,28.77
2018-02-27T12:42:03.469Z,29.50
2018-02-27T12:44:32.909Z,27.20
2018-02-27T12:47:02.386Z,25.10
2018-02-27T12:49:31.834Z,30.40
2018-02-27T12:52:01.274Z,25.43
2018-02-27T12:54:30.733Z,28.80
2018-02-27T12:57:00.178Z,21.33
2018-02-27T12:59:29.670Z,22.23
2018-02-27T13:01:59.173Z,21.07
2018-02-27T13:04:28.638Z,22.13
2018-02-27T13:06:58.081Z,24.87
2018-02-27T13:09:27.546Z,21.37
2018-02-27T13:11:56.994Z,20.87
2018-02-27T13:14:26.470Z,21.37
2018-02-27T13:16:55.917Z,16.93
2018-02-27T13:19:25.382Z,19.77
2018-02-27T13:21:54.831Z,19.23
2018-02-27T13:24:24.281Z,22.13
2018-02-27T13:26:53.757Z,22.33
2018-02-27T13:29:23.212Z,23.70
2018-02-27T13:31:52.673Z,25.47
2018-02-27T13:34:22.121Z,24.40
2018-02-27T13:36:51.581Z,22.27
2018-02-27T13:39:21.041Z,25.57
2018-02-27T13:41:50.502Z,27.73
2018-02-27T13:44:19.961Z,28.53
2018-02-27T13:46:49.430Z,29.63
2018-02-27T13:49:24.843Z,27.67
2018-02-27T13:51:48.574Z,28.13
2018-02-27T13:54:18.022Z,27.17
2018-02-27T13:56:47.481Z,28.70
2018-02-27T13:59:16.937Z,23.97
2018-02-27T14:01:46.481Z,28.57
2018-02-27T14:04:15.937Z,28.10
2018-02-27T14:06:45.397Z,33.03
2018-02-27T14:09:14.855Z,28.90
2018-02-27T14:11:44.310Z,22.70
2018-02-27T14:14:13.770Z,24.93
2018-02-27T14:16:43.029Z,29.23
2018-02-27T14:19:12.473Z,29.37
2018-02-27T14:21:41.937Z,26.40
2018-02-27T14:24:11.389Z,24.93
2018-02-27T14:26:40.880Z,28.03
2018-02-27T14:29:11.098Z,27.13
2018-02-27T14:31:41.708Z,28.67
2018-02-27T14:34:11.199Z,26.57
2018-02-27T14:36:40.687Z,25.30
2018-02-27T14:39:11.436Z,25.97
2018-02-27T14:41:42.727Z,24.57
2018-02-27T14:44:13.326Z,24.27
2018-02-27T14:46:43.074Z,26.63
2018-02-27T14:49:12.631Z,30.90
2018-02-27T14:51:42.880Z,23.87
2018-02-27T14:54:12.366Z,26.57
2018-02-27T14:56:41.966Z,23.57
2018-02-27T14:59:11.451Z,23.30
2018-02-27T15:01:40.757Z,25.43
2018-02-27T15:04:10.237Z,23.43
2018-02-27T15:06:39.687Z,21.67
2018-02-27T15:09:09.185Z,22.80
2018-02-27T15:11:38.629Z,21.43
2018-02-27T15:14:08.078Z,26.93
2018-02-27T15:16:37.893Z,22.00
2018-02-27T15:19:07.350Z,26.03
2018-02-27T15:21:36.849Z,20.83
2018-02-27T15:24:06.217Z,21.87
2018-02-27T15:26:35.670Z,24.07
2018-02-27T15:29:05.134Z,24.93
2018-02-27T15:31:34.622Z,23.40
2018-02-27T15:34:04.095Z,24.27
2018-02-27T15:36:33.546Z,24.40
2018-02-27T15:39:02.806Z,28.17
2018-02-27T15:41:32.269Z,30.43
2018-02-27T15:44:01.714Z,25.40
2018-02-27T15:46:31.559Z,25.20
2018-02-27T15:49:01.013Z,26.10
2018-02-27T15:51:30.486Z,22.90
2018-02-27T15:54:00.176Z,26.65
2018-02-27T15:56:30.213Z,28.73
2018-02-27T15:58:59.661Z,26.03
2018-02-27T16:01:29.195Z,25.13
2018-02-27T16:03:58.657Z,28.13
2018-02-27T16:06:28.138Z,27.07
2018-02-27T16:08:57.601Z,28.13
2018-02-27T16:11:27.057Z,30.20
2018-02-27T16:13:56.529Z,28.57
2018-02-27T16:16:25.978Z,31.57
2018-02-27T16:18:55.118Z,29.20
2018-02-27T16:21:24.565Z,29.17
2018-02-27T16:23:54.038Z,30.10
2018-02-27T16:26:23.617Z,31.33
2018-02-27T16:28:53.058Z,33.37
2018-02-27T16:31:22.526Z,30.50
2018-02-27T16:33:52.068Z,32.60
2018-02-27T16:36:22.115Z,34.07
2018-02-27T16:38:51.672Z,32.57
2018-02-27T16:41:21.162Z,28.37
2018-02-27T16:43:50.646Z,34.40
2018-02-27T16:46:20.097Z,29.30
2018-02-27T16:48:49.581Z,36.53
2018-02-27T16:51:19.046Z,37.83
2018-02-27T16:53:48.518Z,29.40
2018-02-27T16:56:18.011Z,30.87
2018-02-27T16:58:48.269Z,33.30
2018-02-27T17:01:19.186Z,30.50
2018-02-27T17:03:48.680Z,35.23
2018-02-27T17:06:19.097Z,31.10
2018-02-27T17:08:48.642Z,35.40
2018-02-27T17:11:18.133Z,35.40
2018-02-27T17:13:47.885Z,34.23
2018-02-27T17:16:18.346Z,38.67
2018-02-27T17:18:47.971Z,38.07
2018-02-27T17:21:22.657Z,34.17
2018-02-27T17:23:54.719Z,34.80
2018-02-27T17:26:25.315Z,37.13
2018-02-27T17:28:54.800Z,35.43
2018-02-27T17:31:24.870Z,36.53
2018-02-27T17:34:02.494Z,34.83
2018-02-27T17:36:31.998Z,36.97
2018-02-27T17:39:01.544Z,39.73
2018-02-27T17:41:31.024Z,39.17
2018-02-27T17:44:00.696Z,29.73
2018-02-27T17:46:30.166Z,32.73
2018-02-27T17:49:00.581Z,32.23
2018-02-27T17:51:30.901Z,36.57
2018-02-27T17:54:00.374Z,42.60
2018-02-27T17:56:29.825Z,38.33
2018-02-27T17:58:59.278Z,36.87
2018-02-27T18:01:29.130Z,42.45
2018-02-27T18:03:59.414Z,44.93
2018-02-27T18:06:30.074Z,37.33
2018-02-27T18:09:00.650Z,37.87
2018-02-27T18:11:30.939Z,37.47
2018-02-27T18:14:00.377Z,41.53
2018-02-27T18:16:29.821Z,38.23
2018-02-27T18:18:59.368Z,37.00
2018-02-27T18:21:28.874Z,35.60
2018-02-27T18:23:59.333Z,43.13
2018-02-27T18:26:29.927Z,37.90
2018-02-27T18:28:59.434Z,37.97
2018-02-27T18:31:28.722Z,41.70
2018-02-27T18:33:59.047Z,40.47
2018-02-27T18:36:28.504Z,36.73
2018-02-27T18:38:57.957Z,40.90
2018-02-27T18:41:27.532Z,46.83
2018-02-27T18:43:57.067Z,48.13
2018-02-27T18:46:26.687Z,47.47
2018-02-27T18:48:56.139Z,43.67
2018-02-27T18:51:27.389Z,38.40
2018-02-27T18:53:56.842Z,41.87
2018-02-27T18:56:26.310Z,38.13
2018-02-27T18:58:55.801Z,43.67
2018-02-27T19:01:25.263Z,38.23
2018-02-27T19:03:55.280Z,49.07
2018-02-27T19:06:24.743Z,47.37
2018-02-27T19:08:54.291Z,42.03
2018-02-27T19:11:23.791Z,40.33
2018-02-27T19:13:53.300Z,39.40
2018-02-27T19:16:22.809Z,36.23
2018-02-27T19:18:52.270Z,37.87
2018-02-27T19:21:21.714Z,37.43
2018-02-27T19:23:51.174Z,41.67
2018-02-27T19:26:20.663Z,41.17
2018-02-27T19:28:51.012Z,42.70
2018-02-27T19:31:20.478Z,37.50
2018-02-27T19:33:49.943Z,43.40
2018-02-27T19:36:20.187Z,37.10
2018-02-27T19:38:49.665Z,38.90
2018-02-27T19:41:19.972Z,40.40
2018-02-27T19:43:50.030Z,42.47
2018-02-27T19:46:19.516Z,42.83
2018-02-27T19:48:48.994Z,43.27
2018-02-27T19:51:18.442Z,33.07
2018-02-27T19:53:48.599Z,33.60
2018-02-27T19:56:18.071Z,35.53
2018-02-27T19:58:47.518Z,34.87
2018-02-27T20:01:17.096Z,38.93
2018-02-27T20:03:46.549Z,40.43
2018-02-27T20:06:16.018Z,41.67
2018-02-27T20:08:45.801Z,34.87
2018-02-27T20:11:15.410Z,43.57
2018-02-27T20:13:44.879Z,48.13
2018-02-27T20:16:14.417Z,39.10
2018-02-27T20:18:43.895Z,39.90
2018-02-27T20:21:13.405Z,43.50
2018-02-27T20:23:48.378Z,41.67
2018-02-27T20:26:17.885Z,39.60
2018-02-27T20:28:52.901Z,43.80
2018-02-27T20:31:22.599Z,41.63
2018-02-27T20:33:52.116Z,48.47
2018-02-27T20:36:21.908Z,43.23
2018-02-27T20:38:56.971Z,42.17
2018-02-27T20:41:26.450Z,45.13
2018-02-27T20:43:55.917Z,36.97
2018-02-27T20:46:25.486Z,49.87
2018-02-27T20:48:54.956Z,49.00
2018-02-27T20:51:24.495Z,46.77
2018-02-27T20:53:54.001Z,41.67
2018-02-27T20:56:23.473Z,44.83
2018-02-27T20:58:52.914Z,49.07
2018-02-27T21:01:22.383Z,43.13
2018-02-27T21:03:51.924Z,42.40
2018-02-27T21:06:21.376Z,46.20
2018-02-27T21:08:51.471Z,41.67
2018-02-27T21:11:20.930Z,40.53
2018-02-27T21:13:50.401Z,45.17
2018-02-27T21:16:19.846Z,44.50
2018-02-27T21:18:49.130Z,42.70
2018-02-27T21:21:18.577Z,46.03
2018-02-27T21:23:48.025Z,43.23
2018-02-27T21:26:17.487Z,45.70
2018-02-27T21:28:46.933Z,48.43
2018-02-27T21:31:16.429Z,41.67
2018-02-27T21:33:46.081Z,48.23
2018-02-27T21:36:15.564Z,43.37
2018-02-27T21:38:45.037Z,46.97
2018-02-27T21:41:14.812Z,44.87
2018-02-27T21:43:44.315Z,39.83
2018-02-27T21:46:13.864Z,45.97
2018-02-27T21:48:43.633Z,43.40
2018-02-27T21:51:13.146Z,47.80
2018-02-27T21:53:42.622Z,46.73
2018-02-27T21:56:12.077Z,42.50
2018-02-27T21:58:41.533Z,43.83
2018-02-27T22:01:10.975Z,42.00
2018-02-27T22:03:40.434Z,43.43
2018-02-27T22:06:09.878Z,43.27
2018-02-27T22:08:39.325Z,37.13
2018-02-27T22:11:08.786Z,46.60
2018-02-27T22:13:38.230Z,47.43
2018-02-27T22:16:07.741Z,46.07
2018-02-27T22:18:37.202Z,43.47
2018-02-27T22:21:07.397Z,46.43
2018-02-27T22:23:36.857Z,41.33
2018-02-27T22:26:06.322Z,44.50
2018-02-27T22:28:35.802Z,48.13
2018-02-27T22:31:05.301Z,48.33
2018-02-27T22:33:34.757Z,50.37
2018-02-27T22:36:04.214Z,49.57
2018-02-27T22:38:33.686Z,48.30
2018-02-27T22:41:03.145Z,47.80
2018-02-27T22:43:32.861Z,52.37
2018-02-27T22:46:02.329Z,40.03
2018-02-27T22:48:31.789Z,35.17
2018-02-27T22:51:01.262Z,54.30
2018-02-27T22:53:30.721Z,43.03
2018-02-27T22:56:00.190Z,44.00
2018-02-27T22:58:29.653Z,38.40
2018-02-27T23:00:59.116Z,42.90
2018-02-27T23:03:28.583Z,38.03
2018-02-27T23:05:58.025Z,43.93
2018-02-27T23:08:27.497Z,38.10
2018-02-27T23:10:56.758Z,41.97
2018-02-27T23:13:26.217Z,39.17
2018-02-27T23:15:55.657Z,31.87
2018-02-27T23:18:25.113Z,43.13
2018-02-27T23:20:54.552Z,35.80
2018-02-27T23:23:24.015Z,38.20
2018-02-27T23:26:04.246Z,34.93
2018-02-27T23:28:36.813Z,33.57
2018-02-27T23:31:06.521Z,25.83
2018-02-27T23:33:37.777Z,34.43
2018-02-27T23:36:07.382Z,36.37
2018-02-27T23:38:36.841Z,40.30
2018-02-27T23:41:06.309Z,41.67
2018-02-27T23:43:35.765Z,43.20
2018-02-27T23:46:05.314Z,38.90
2018-02-27T23:48:34.834Z,41.47
2018-02-27T23:51:04.294Z,34.47
2018-02-27T23:53:33.737Z,44.93
2018-02-27T23:56:03.193Z,38.70
2018-02-27T23:58:32.641Z,43.63
